Time;durP1;ratioP1;P1;durP2;ratioP2;P2;SDS_P1;SDS_P2;PMS_P1;PMS_P2;Temp;Humidity;BMP_temperature;BMP_pressure;BME280_temperature;BME280_humidity;BME280_pressure;Samples;Min_cycle;Max_cycle;Signal;HPM_P1;HPM_P2
2021/12/02 00:00:55;;;;;;;3.70;1.62;;;;;;;7.43;76.57;96878.59;3860178;91;21770;-85
2021/12/02 00:06:57;;;;;;;5.62;2.10;;;;;;;7.46;76.63;96881.86;3861795;91;21614;-85
2021/12/02 00:12:59;;;;;;;3.22;1.57;;;;;;;7.48;76.58;96865.91;3858042;90;21181;-85
2021/12/02 00:25:22;;;;;;;3.67;1.60;;;;;;;7.38;77.47;96853.17;3855790;91;21721;-84
2021/12/02 00:31:31;;;;;;;2.83;1.70;;;;;;;7.44;77.14;96844.16;3849994;91;21125;-87
2021/12/02 00:37:33;;;;;;;2.00;1.00;;;;;;;7.49;77.09;96833.41;3851535;91;21265;-84
2021/12/02 00:43:35;;;;;;;2.65;1.20;;;;;;;7.51;76.99;96839.23;3851234;91;21201;-84
2021/12/02 00:49:36;;;;;;;3.40;1.40;;;;;;;7.54;76.96;96846.01;3850992;90;21670;-85
2021/12/02 00:55:41;;;;;;;2.85;1.37;;;;;;;7.53;77.01;96850.50;3843007;91;21798;-85
2021/12/02 01:02:10;;;;;;;2.15;1.20;;;;;;;7.52;76.61;96842.12;3851691;91;21089;-84
2021/12/02 01:08:17;;;;;;;3.50;1.50;;;;;;;7.49;76.84;96857.91;3862704;90;21168;-82
2021/12/02 01:14:41;;;;;;;4.20;1.40;;;;;;;7.51;76.96;96859.65;3853972;90;21097;-83
2021/12/02 01:20:53;;;;;;;2.77;1.50;;;;;;;7.54;76.90;96852.81;3859879;90;21664;-83
2021/12/02 01:27:10;;;;;;;3.58;1.50;;;;;;;7.51;76.94;96856.34;3863296;90;21041;-83
2021/12/02 01:33:16;;;;;;;3.72;1.52;;;;;;;7.54;76.82;96857.48;3859984;90;21661;-85
2021/12/02 01:39:42;;;;;;;2.98;1.45;;;;;;;7.51;76.96;96844.09;3864284;90;21068;-84
2021/12/02 01:45:44;;;;;;;6.10;1.55;;;;;;;7.47;76.99;96852.13;3863955;90;21209;-84
2021/12/02 01:51:49;;;;;;;2.65;1.40;;;;;;;7.46;77.16;96873.70;3863131;90;21060;-85
2021/12/02 01:58:20;;;;;;;2.25;1.42;;;;;;;7.51;76.77;96859.65;3861244;90;21427;-84
2021/12/02 02:04:24;;;;;;;2.75;1.47;;;;;;;7.53;77.18;96864.11;3861095;91;21079;-83
2021/12/02 02:10:34;;;;;;;1.95;1.30;;;;;;;7.58;76.54;96874.56;3857949;91;21087;-83
2021/12/02 02:16:47;;;;;;;2.50;1.20;;;;;;;7.54;76.96;96867.00;3857750;91;21704;-84
2021/12/02 02:23:19;;;;;;;3.40;1.50;;;;;;;7.54;77.15;96864.28;3857177;91;21147;-85
2021/12/02 02:29:27;;;;;;;3.02;1.47;;;;;;;7.59;76.41;96869.29;3856736;91;21071;-84
2021/12/02 02:35:30;;;;;;;2.65;1.67;;;;;;;7.44;77.11;96880.12;3858038;91;21170;-84
2021/12/02 02:41:41;;;;;;;2.42;1.57;;;;;;;7.34;77.39;96887.25;3857468;91;21178;-84
2021/12/02 02:47:45;;;;;;;3.37;1.37;;;;;;;7.29;77.69;96883.59;3859637;91;21678;-84
2021/12/02 02:53:53;;;;;;;3.83;1.50;;;;;;;7.17;78.08;96885.45;3860185;91;22335;-84
2021/12/02 03:00:12;;;;;;;3.45;1.65;;;;;;;7.23;78.22;96892.59;3861484;91;21566;-83
2021/12/02 03:07:31;;;;;;;;;;;;;;;;;;;;;
2021/12/02 03:18:46;;;;;;;2.75;1.87;;;;;;;7.33;78.02;96888.41;3771812;91;21226;-84
2021/12/02 03:24:48;;;;;;;2.37;1.40;;;;;;;7.22;78.19;96889.70;3858537;91;21701;-83
2021/12/02 03:30:56;;;;;;;2.45;1.50;;;;;;;7.15;78.24;96896.55;3857698;91;21114;-84
2021/12/02 03:37:03;;;;;;;5.17;1.72;;;;;;;7.07;78.25;96901.88;3858095;91;21162;-83
2021/12/02 03:43:12;;;;;;;8.33;2.08;;;;;;;6.95;78.55;96901.79;3857965;91;21040;-83
2021/12/02 03:49:13;;;;;;;3.25;1.67;;;;;;;6.86;78.95;96903.42;3857789;90;21058;-83
2021/12/02 03:55:16;;;;;;;2.77;1.70;;;;;;;6.87;78.89;96903.59;3858536;91;21817;-84
2021/12/02 04:01:26;;;;;;;3.05;1.55;;;;;;;6.85;79.15;96910.02;3857844;91;21809;-83
2021/12/02 04:07:27;;;;;;;2.87;1.62;;;;;;;6.84;78.98;96894.88;3855870;91;21107;-85
2021/12/02 04:13:33;;;;;;;2.42;1.72;;;;;;;6.76;79.20;96900.96;3859117;91;21145;-83
2021/12/02 04:19:40;;;;;;;4.55;2.00;;;;;;;6.64;79.41;96902.78;3856944;91;21178;-83
2021/12/02 04:25:41;;;;;;;3.52;1.85;;;;;;;6.56;79.78;96904.59;3856184;91;21063;-85
2021/12/02 04:31:45;;;;;;;3.47;2.30;;;;;;;6.52;79.52;96905.19;3857575;91;21073;-83
2021/12/02 04:37:54;;;;;;;5.75;2.60;;;;;;;6.49;79.58;96911.42;3857594;91;21981;-83
2021/12/02 04:44:23;;;;;;;8.13;2.25;;;;;;;6.45;79.97;96910.11;3858184;91;21075;-79
2021/12/02 04:50:25;;;;;;;3.95;2.22;;;;;;;6.37;80.19;96914.79;3857036;91;21122;-84
2021/12/02 04:56:26;;;;;;;2.67;1.87;;;;;;;6.37;80.08;96913.43;3856942;91;21087;-84
2021/12/02 05:02:28;;;;;;;4.28;2.22;;;;;;;6.34;80.30;96922.37;3857813;91;21086;-83
2021/12/02 05:08:30;;;;;;;3.80;2.20;;;;;;;6.34;80.37;96929.17;3855085;91;22399;-84
2021/12/02 05:14:31;;;;;;;4.33;2.08;;;;;;;6.39;80.52;96935.55;3857058;91;21068;-84
2021/12/02 05:20:33;;;;;;;4.17;2.33;;;;;;;6.44;80.40;96931.64;3857332;91;21110;-82
2021/12/02 05:26:46;;;;;;;3.00;2.27;;;;;;;6.47;80.30;96934.17;3857990;91;21576;-84
2021/12/02 05:32:49;;;;;;;2.83;2.02;;;;;;;6.58;79.84;96926.12;3857372;91;21135;-84
2021/12/02 05:39:09;;;;;;;2.45;1.60;;;;;;;6.55;79.87;96922.84;3856958;91;21686;-84
2021/12/02 05:45:19;;;;;;;5.42;2.17;;;;;;;6.47;79.87;96929.48;3858609;91;21112;-84
2021/12/02 05:51:28;;;;;;;4.53;2.20;;;;;;;6.37;79.95;96943.32;3919247;89;38587;-83
2021/12/02 05:57:31;;;;;;;4.20;2.35;;;;;;;6.31;79.84;96949.59;3935510;89;21568;-84
2021/12/02 06:03:40;;;;;;;4.78;2.50;;;;;;;6.17;80.13;96953.73;3931071;88;21181;-84
2021/12/02 06:09:38;;;;;;;6.40;3.05;;;;;;;6.07;80.18;96968.90;3888780;90;21282;-85
2021/12/02 06:15:48;;;;;;;;;;;;;;;5.94;80.43;96995.50;3889469;90;21088;-84
2021/12/02 06:21:55;;;;;;;5.60;2.92;;;;;;;6.02;81.28;97003.83;3890556;90;20178;-84
2021/12/02 06:27:57;;;;;;;;;;;;;;;6.01;81.08;97004.40;3890771;90;21851;-83
2021/12/02 06:33:58;;;;;;;4.92;2.50;;;;;;;6.01;81.82;96986.75;3885394;90;20179;-86
2021/12/02 06:40:09;;;;;;;4.53;2.92;;;;;;;5.93;81.62;97002.89;3867060;90;21662;-85
2021/12/02 06:46:10;;;;;;;5.65;2.95;;;;;;;5.93;81.73;97018.41;3887460;90;21572;-85
2021/12/02 06:52:15;;;;;;;4.42;2.67;;;;;;;5.89;81.79;97021.70;3889161;90;21082;-84
2021/12/02 06:58:15;;;;;;;6.60;3.45;;;;;;;5.86;82.00;97021.91;3889939;90;21120;-84
2021/12/02 07:10:33;;;;;;;9.58;5.45;;;;;;;6.06;82.01;97020.91;3932415;89;21045;-83
2021/12/02 07:16:37;;;;;;;4.72;3.35;;;;;;;6.29;81.82;97023.35;3811223;92;22287;-84
2021/12/02 07:22:38;;;;;;;5.80;2.70;;;;;;;6.54;81.45;97029.25;3932016;89;21148;-82
2021/12/02 07:28:42;;;;;;;7.58;2.85;;;;;;;6.65;81.17;97022.61;3933368;89;21772;-82
2021/12/02 07:35:18;;;;;;;;;;;;;;;;;;;;;
2021/12/02 07:41:36;;;;;;;6.20;3.12;;;;;;;6.74;81.28;97032.46;3901986;89;21096;-83
2021/12/02 07:47:43;;;;;;;4.47;2.87;;;;;;;6.90;80.94;97051.81;3933179;89;21038;-83
2021/12/02 07:53:47;;;;;;;4.47;2.50;;;;;;;7.12;80.39;97042.92;3932099;89;21896;-84
2021/12/02 07:59:53;;;;;;;4.47;2.72;;;;;;;7.23;80.37;97045.78;3936736;89;21057;-84
2021/12/02 08:06:05;;;;;;;5.95;2.55;;;;;;;7.37;79.93;97061.22;3936053;89;21041;-83
2021/12/02 08:12:07;;;;;;;6.22;3.15;;;;;;;7.47;79.27;97060.38;3934163;89;21069;-83
2021/12/02 08:18:11;;;;;;;4.55;2.65;;;;;;;7.67;78.86;97058.05;3933725;89;21631;-85
2021/12/02 08:24:12;;;;;;;4.92;2.62;;;;;;;8.02;77.98;97053.48;3931496;89;21054;-83
2021/12/02 08:30:24;;;;;;;3.83;2.50;;;;;;;8.33;75.60;97067.40;3931106;89;21540;-84
2021/12/02 08:36:28;;;;;;;7.97;2.60;;;;;;;8.44;76.68;97077.59;3932906;89;21091;-84
2021/12/02 08:42:32;;;;;;;4.05;2.20;;;;;;;8.45;76.99;97086.73;3855526;90;21585;-83
2021/12/02 08:49:00;;;;;;;9.15;2.33;;;;;;;8.44;76.05;97096.08;3934246;89;21183;-84
2021/12/02 08:55:15;;;;;;;;;;;;;;;8.40;76.16;97098.08;3935685;89;21032;-85
2021/12/02 09:08:20;;;;;;;2.87;1.87;;;;;;;8.34;76.39;97106.52;3945984;88;21087;-83
2021/12/02 09:14:21;;;;;;;3.58;1.82;;;;;;;8.39;76.25;97120.30;3956429;88;21551;-83
2021/12/02 09:20:43;;;;;;;3.90;2.00;;;;;;;8.37;76.08;97126.16;3820845;90;21885;-85
2021/12/02 09:32:59;;;;;;;10.03;3.50;;;;;;;8.48;76.46;97131.49;3944939;88;21582;-86
2021/12/02 09:39:07;;;;;;;12.03;2.87;;;;;;;8.62;76.50;97124.52;3821643;91;21086;-83
2021/12/02 09:45:11;;;;;;;;;;;;;;;8.72;76.48;97128.48;3958586;88;21061;-84
2021/12/02 09:51:15;;;;;;;2.95;1.85;;;;;;;8.74;73.74;97115.83;3961215;88;20160;-83
2021/12/02 09:57:25;;;;;;;4.50;2.37;;;;;;;8.75;74.33;97115.42;3959524;88;21497;-84
2021/12/02 10:03:36;;;;;;;5.80;2.92;;;;;;;8.73;73.28;97113.69;3952745;88;21147;-83
2021/12/02 10:10:12;;;;;;;10.10;2.98;;;;;;;8.73;73.41;97112.32;3938892;88;21072;-83
2021/12/02 10:16:32;;;;;;;5.85;2.15;;;;;;;8.74;72.65;97120.68;3936618;89;21355;-83
2021/12/02 10:23:53;;;;;;;;;;;;;;;;;;;;;
2021/12/02 10:29:39;;;;;;;3.70;1.98;;;;;;;8.73;72.43;97127.33;3926894;89;21553;-83
2021/12/02 10:35:49;;;;;;;2.83;1.50;;;;;;;8.86;71.40;97130.30;3941475;89;21075;-84
2021/12/02 10:49:33;;;;;;;4.20;2.58;;;;;;;8.91;71.94;97145.62;3751012;92;21162;-82
2021/12/02 10:55:37;;;;;;;5.75;2.45;;;;;;;8.91;71.79;97134.70;3781388;89;27744;-83
2021/12/02 11:01:40;;;;;;;8.80;3.05;;;;;;;8.79;71.68;97127.06;3753285;92;21198;-83
2021/12/02 11:08:01;;;;;;;7.37;2.90;;;;;;;8.80;71.85;97136.78;3768504;91;21163;-82
2021/12/02 11:14:11;;;;;;;5.30;2.40;;;;;;;8.84;71.97;97128.56;3815509;91;21578;-83
2021/12/02 11:20:57;;;;;;;4.05;2.30;;;;;;;8.85;70.44;97126.79;3817887;90;21083;-82
2021/12/02 11:27:07;;;;;;;9.60;2.25;;;;;;;8.77;71.62;97132.75;3805185;92;21789;-83
2021/12/02 11:33:23;;;;;;;4.35;1.80;;;;;;;8.71;70.78;97137.86;3800486;92;21107;-82
2021/12/02 11:39:45;;;;;;;10.03;1.95;;;;;;;8.60;70.69;97133.70;3801528;91;21162;-83
2021/12/02 11:46:01;;;;;;;6.00;2.20;;;;;;;8.54;70.53;97132.02;3797039;92;21114;-81
2021/12/02 11:52:04;;;;;;;5.33;2.83;;;;;;;8.53;70.16;97131.06;3803907;92;21039;-83
2021/12/02 11:58:06;;;;;;;5.72;3.08;;;;;;;8.54;70.58;97129.28;3800681;92;21087;-84
2021/12/02 12:10:51;;;;;;;10.43;5.37;;;;;;;8.64;70.93;97136.59;3818491;92;21079;-83
2021/12/02 12:17:09;;;;;;;6.80;3.08;;;;;;;8.62;70.82;97132.12;3823156;92;21147;-84
2021/12/02 12:36:56;;;;;;;6.50;3.30;;;;;;;8.50;71.17;97138.11;3777407;93;21042;-83
2021/12/02 12:49:45;;;;;;;4.80;2.30;;;;;;;8.37;70.96;97150.69;3812338;92;21059;-84
2021/12/02 12:56:02;;;;;;;5.97;3.22;;;;;;;8.30;71.26;97149.38;3814164;92;21087;-83
2021/12/02 13:02:36;;;;;;;8.35;2.67;;;;;;;8.23;71.31;97147.31;3819566;92;21132;-84
2021/12/02 13:15:25;;;;;;;11.43;3.62;;;;;;;8.15;71.71;97156.13;3817215;92;21599;-82
2021/12/02 13:21:45;;;;;;;5.53;2.60;;;;;;;8.09;71.72;97161.83;3780330;93;21075;-84
2021/12/02 13:27:46;;;;;;;6.22;3.12;;;;;;;7.97;71.77;97159.59;3824812;92;21087;-84
2021/12/02 13:34:21;;;;;;;5.95;2.95;;;;;;;7.91;71.65;97158.45;3816168;92;21063;-83
2021/12/02 13:40:22;;;;;;;13.35;3.45;;;;;;;7.84;71.75;97155.22;3819423;92;21087;-83
2021/12/02 13:46:47;;;;;;;14.13;5.03;;;;;;;7.75;71.87;97152.75;3817042;92;21095;-84
2021/12/02 13:52:53;;;;;;;18.95;7.22;;;;;;;7.69;72.00;97161.92;3818098;92;21066;-84
2021/12/02 13:59:18;;;;;;;46.02;24.52;;;;;;;7.59;72.26;97171.53;3817841;92;21095;-86
2021/12/02 14:05:27;;;;;;;24.30;13.98;;;;;;;7.49;72.40;97175.08;3829588;92;21080;-83
2021/12/02 14:11:28;;;;;;;16.37;7.80;;;;;;;7.35;72.16;97177.88;3801679;91;21116;-85
2021/12/02 14:17:57;;;;;;;10.15;5.50;;;;;;;7.21;72.15;97174.66;3798001;92;21047;-85
2021/12/02 14:23:59;;;;;;;14.20;5.72;;;;;;;7.07;71.86;97185.60;3799645;92;21119;-84
2021/12/02 14:30:21;;;;;;;12.58;5.30;;;;;;;6.93;71.89;97199.83;3775058;93;21007;-83
2021/12/02 14:36:51;;;;;;;10.08;4.55;;;;;;;6.78;71.98;97210.57;3820479;92;21127;-85
2021/12/02 14:42:54;;;;;;;13.53;5.40;;;;;;;6.64;72.04;97206.52;3816728;91;21246;-84
2021/12/02 14:49:13;;;;;;;15.90;6.28;;;;;;;6.50;72.31;97222.86;3812673;92;21075;-85
2021/12/02 14:55:22;;;;;;;17.82;7.90;;;;;;;6.37;72.35;97224.59;3816635;91;21103;-83
2021/12/02 15:01:29;;;;;;;15.78;7.40;;;;;;;6.26;72.66;97238.02;3832307;91;21079;-84
2021/12/02 15:07:57;;;;;;;14.85;6.83;;;;;;;6.14;72.86;97240.52;3817990;92;21047;-84
2021/12/02 15:13:58;;;;;;;12.58;6.72;;;;;;;6.09;72.82;97249.66;3823229;91;21174;-84
2021/12/02 15:20:17;;;;;;;18.35;6.42;;;;;;;5.93;73.12;97254.10;3826147;91;21108;-84
2021/12/02 15:26:22;;;;;;;15.23;6.75;;;;;;;5.84;73.40;97263.19;3829957;91;21119;-85
2021/12/02 15:32:27;;;;;;;17.48;7.62;;;;;;;5.71;73.39;97267.98;3826406;91;21118;-84
2021/12/02 15:38:32;;;;;;;16.32;7.42;;;;;;;5.57;73.65;97286.38;3829422;91;21106;-85
2021/12/02 15:44:38;;;;;;;21.90;7.83;;;;;;;5.40;73.69;97292.52;3836376;91;21103;-83
2021/12/02 15:50:50;;;;;;;16.60;7.67;;;;;;;5.22;74.38;97293.56;3850732;91;21063;-84
2021/12/02 15:56:57;;;;;;;14.33;7.85;;;;;;;5.22;74.86;97307.92;3839214;90;21106;-84
2021/12/02 16:03:01;;;;;;;20.37;8.40;;;;;;;5.36;75.39;97304.48;3836772;91;21106;-85
2021/12/02 16:16:18;;;;;;;21.52;9.28;;;;;;;5.64;75.11;97299.16;3749751;93;21196;-85
2021/12/02 16:22:22;;;;;;;20.35;8.70;;;;;;;5.66;75.16;97305.78;3800831;91;21138;-84
2021/12/02 16:28:24;;;;;;;19.90;8.70;;;;;;;5.53;75.04;97322.20;3824199;91;21080;-84
2021/12/02 16:34:25;;;;;;;22.30;10.25;;;;;;;5.41;75.40;97334.76;3828597;91;21207;-84
2021/12/02 16:40:30;;;;;;;23.15;11.55;;;;;;;5.28;75.56;97332.16;3828862;91;21110;-85
2021/12/02 16:46:50;;;;;;;26.12;11.60;;;;;;;5.10;75.45;97342.72;3881053;90;21086;-86
2021/12/02 16:52:57;;;;;;;27.62;13.08;;;;;;;4.99;75.38;97344.59;3888022;90;21078;-84
2021/12/02 16:58:59;;;;;;;31.10;13.18;;;;;;;4.87;75.31;97347.61;3888498;90;21055;-86
2021/12/02 17:05:07;;;;;;;35.73;16.52;;;;;;;4.70;75.99;97353.09;3811196;92;21100;-84
2021/12/02 17:11:10;;;;;;;70.90;29.20;;;;;;;4.62;75.92;97356.89;3872135;90;21162;-85
2021/12/02 17:17:21;;;;;;;82.05;32.28;;;;;;;4.49;76.19;97359.70;3883719;90;22270;-85
2021/12/02 17:23:47;;;;;;;70.97;30.90;;;;;;;4.38;76.31;97359.62;3885830;91;21090;-85
2021/12/02 17:29:50;;;;;;;52.27;24.65;;;;;;;4.29;76.42;97368.61;3803006;92;21080;-84
2021/12/02 17:35:51;;;;;;;54.20;21.95;;;;;;;4.11;76.60;97376.36;3875836;91;21075;-84
2021/12/02 17:42:06;;;;;;;49.08;20.48;;;;;;;4.07;77.08;97387.73;3878063;89;21654;-85
2021/12/02 17:48:11;;;;;;;38.83;17.02;;;;;;;4.01;77.29;97389.22;3868039;90;21144;-85
2021/12/02 17:54:15;;;;;;;33.60;16.00;;;;;;;4.04;77.35;97403.38;3865986;90;21567;-85
2021/12/02 18:00:30;;;;;;;36.90;16.35;;;;;;;4.11;77.69;97402.87;3869522;90;21076;-86
2021/12/02 18:06:32;;;;;;;40.03;16.53;;;;;;;4.22;78.46;97408.39;3794873;92;21094;-85
2021/12/02 18:18:54;;;;;;;38.33;19.75;;;;;;;4.10;78.37;97405.35;3874131;90;21058;-85
2021/12/02 18:24:56;;;;;;;77.47;35.15;;;;;;;4.27;78.61;97409.41;3812110;91;21516;-85
2021/12/02 18:31:19;;;;;;;43.68;21.52;;;;;;;4.14;78.38;97413.52;3884535;90;21079;-85
2021/12/02 18:37:36;;;;;;;47.85;25.05;;;;;;;4.12;78.42;97417.95;3882776;90;21031;-85
2021/12/02 18:43:42;;;;;;;69.75;30.60;;;;;;;4.09;78.68;97426.03;3886003;90;21055;-85
2021/12/02 18:49:52;;;;;;;74.00;33.83;;;;;;;4.17;78.86;97427.67;3884700;92;21035;-85
2021/12/02 18:55:54;;;;;;;88.40;40.12;;;;;;;4.16;78.93;97436.96;3882632;90;21726;-85
2021/12/02 19:01:57;;;;;;;68.95;35.03;;;;;;;4.10;79.17;97435.14;3806176;92;21060;-85
2021/12/02 19:27:05;;;;;;;60.92;29.45;;;;;;;4.15;80.89;97442.94;3796531;92;21078;-85
2021/12/02 19:33:07;;;;;;;68.85;34.35;;;;;;;4.30;80.80;97450.66;3872984;90;21595;-84
2021/12/02 19:39:09;;;;;;;77.75;36.13;;;;;;;4.35;81.01;97465.98;3868119;90;21390;-84
2021/12/02 19:45:12;;;;;;;78.95;39.23;;;;;;;4.34;80.80;97465.80;3870471;90;21958;-85
2021/12/02 19:51:25;;;;;;;73.20;36.70;;;;;;;4.24;80.89;97471.89;3874426;90;21115;-84
2021/12/02 19:57:26;;;;;;;108.92;53.70;;;;;;;4.28;81.28;97472.70;3883493;89;21039;-84
2021/12/02 20:03:46;;;;;;;103.60;50.15;;;;;;;4.38;81.34;97482.09;3897876;90;21111;-85
2021/12/02 20:09:51;;;;;;;104.60;47.88;;;;;;;4.42;81.10;97482.91;3868699;90;21139;-84
2021/12/02 20:16:08;;;;;;;88.33;43.50;;;;;;;4.31;80.87;97486.86;3876337;90;21051;-84
2021/12/02 20:22:06;;;;;;;80.90;41.18;;;;;;;4.28;80.95;97491.66;3869286;90;21079;-85
2021/12/02 20:28:12;;;;;;;73.07;37.17;;;;;;;4.29;81.02;97500.58;3880872;91;21068;-85
2021/12/02 20:34:35;;;;;;;76.60;34.90;;;;;;;4.34;81.13;97498.88;3823497;92;21897;-84
2021/12/02 20:40:36;;;;;;;66.37;29.72;;;;;;;4.33;80.96;97496.76;3851358;91;21201;-84
2021/12/02 20:46:52;;;;;;;55.95;25.23;;;;;;;4.35;80.79;97499.09;3808808;92;21601;-85
2021/12/02 20:59:22;;;;;;;42.05;18.87;;;;;;;4.10;79.67;97487.95;3857545;91;21074;-85
2021/12/02 21:05:25;;;;;;;40.23;17.40;;;;;;;4.06;79.75;97497.18;3873739;90;21091;-84
2021/12/02 21:11:31;;;;;;;37.25;14.05;;;;;;;4.05;79.10;97509.95;3771359;90;10000029;-84
2021/12/02 21:17:35;;;;;;;37.80;14.50;;;;;;;4.06;78.73;97522.91;3829597;92;21095;-85
2021/12/02 21:23:50;;;;;;;25.97;10.25;;;;;;;4.06;78.48;97542.65;3884108;90;21106;-84
2021/12/02 21:30:02;;;;;;;30.93;9.80;;;;;;;4.01;77.91;97534.84;3886485;90;21086;-84
2021/12/02 21:36:12;;;;;;;17.62;7.80;;;;;;;3.92;77.29;97547.88;3886166;90;21059;-85
2021/12/02 21:42:41;;;;;;;20.50;6.87;;;;;;;3.84;76.34;97549.48;3889715;90;21152;-84
2021/12/02 21:48:42;;;;;;;17.35;7.25;;;;;;;3.70;76.18;97564.95;3882867;90;21039;-83
2021/12/02 22:02:05;;;;;;;13.80;4.60;;;;;;;3.46;75.64;97556.46;3876855;91;21447;-84
2021/12/02 22:08:06;;;;;;;9.18;3.60;;;;;;;3.26;74.79;97571.97;3821259;92;21016;-83
2021/12/02 22:14:11;;;;;;;12.25;3.85;;;;;;;3.19;73.92;97569.16;3775061;92;21131;-84
2021/12/02 22:20:15;;;;;;;14.10;4.87;;;;;;;3.18;73.82;97584.59;3890524;90;21074;-85
2021/12/02 22:26:17;;;;;;;14.80;4.70;;;;;;;3.09;73.40;97597.58;3900925;90;21123;-84
2021/12/02 22:32:20;;;;;;;19.67;6.70;;;;;;;3.08;73.14;97594.67;3823115;92;21571;-84
2021/12/02 22:38:25;;;;;;;20.05;6.58;;;;;;;3.08;72.99;97601.98;3890120;90;21643;-84
2021/12/02 22:44:31;;;;;;;;;;;;;;;3.03;72.92;97630.66;3879232;90;22131;-84
2021/12/02 22:50:32;;;;;;;18.07;5.53;;;;;;;2.97;72.22;97632.89;3887673;90;20198;-84
2021/12/02 22:56:39;;;;;;;17.42;5.12;;;;;;;2.91;72.22;97643.76;3885983;90;21091;-84
2021/12/02 23:02:40;;;;;;;16.97;5.65;;;;;;;2.89;73.02;97652.81;3883078;90;21448;-84
2021/12/02 23:08:42;;;;;;;19.27;5.83;;;;;;;2.92;72.44;97671.58;3842246;92;21098;-84
2021/12/02 23:14:43;;;;;;;17.27;6.25;;;;;;;2.92;72.51;97664.27;3814980;92;21084;-85
2021/12/02 23:20:45;;;;;;;14.25;5.55;;;;;;;2.85;71.75;97660.64;3898740;89;21561;-84
2021/12/02 23:26:51;;;;;;;14.68;5.72;;;;;;;2.76;70.96;97679.76;3908987;90;21091;-83
2021/12/02 23:32:53;;;;;;;15.23;5.00;;;;;;;2.76;70.80;97670.86;3891217;90;21054;-84
2021/12/02 23:39:01;;;;;;;15.93;6.65;;;;;;;2.77;71.50;97678.61;3876961;91;21087;-84
2021/12/02 23:45:03;;;;;;;18.05;7.33;;;;;;;2.79;71.71;97693.13;3887602;90;21184;-84
2021/12/02 23:51:29;;;;;;;18.65;7.40;;;;;;;2.74;71.44;97709.64;3863991;90;21192;-84
2021/12/02 23:57:30;;;;;;;22.87;8.13;;;;;;;2.74;71.74;97717.75;3884278;90;21119;-83
